createdAt,value
2018-06-21T01:17:09.017Z,10.53
2018-06-21T01:19:37.323Z,9.87
2018-06-21T01:22:05.809Z,9.50
2018-06-21T01:24:34.172Z,9.73
2018-06-21T01:27:02.661Z,9.45
2018-06-21T01:29:31.025Z,8.93
2018-06-21T01:31:59.461Z,9.38
2018-06-21T01:34:27.886Z,9.03
2018-06-21T01:36:56.580Z,8.80
2018-06-21T01:39:24.874Z,8.70
2018-06-21T01:41:53.226Z,8.77
2018-06-21T01:44:21.645Z,8.60
2018-06-21T01:46:50.310Z,8.83
2018-06-21T01:49:18.620Z,8.88
2018-06-21T01:51:47.544Z,10.08
2018-06-21T01:54:15.864Z,8.08
2018-06-21T01:56:44.261Z,8.00
2018-06-21T01:59:12.612Z,8.73
2018-06-21T02:01:41.142Z,8.43
2018-06-21T02:04:09.539Z,8.13
2018-06-21T02:06:37.930Z,7.95
2018-06-21T02:09:08.174Z,8.55
2018-06-21T02:11:36.542Z,8.25
2018-06-21T02:14:05.183Z,8.93
2018-06-21T02:16:33.891Z,9.23
2018-06-21T02:19:02.279Z,8.50
2018-06-21T02:21:30.640Z,8.90
2018-06-21T02:23:59.000Z,9.08
2018-06-21T02:26:27.336Z,9.35
2018-06-21T02:28:55.651Z,9.65
2018-06-21T02:31:23.989Z,8.75
2018-06-21T02:33:52.315Z,10.40
2018-06-21T02:36:20.664Z,9.45
2018-06-21T02:38:49.275Z,9.50
2018-06-21T02:41:20.160Z,9.65
2018-06-21T02:43:49.142Z,10.25
2018-06-21T02:46:17.684Z,11.07
2018-06-21T02:48:46.105Z,9.98
2018-06-21T02:51:14.800Z,10.30
2018-06-21T02:53:43.110Z,10.50
2018-06-21T02:56:11.615Z,10.45
2018-06-21T02:58:39.933Z,11.43
2018-06-21T03:01:08.297Z,9.87
2018-06-21T03:03:36.612Z,10.60
2018-06-21T03:06:04.981Z,10.63
2018-06-21T03:08:33.341Z,9.67
2018-06-21T03:11:01.735Z,10.00
2018-06-21T03:13:30.208Z,11.10
2018-06-21T03:15:58.957Z,11.08
2018-06-21T03:18:27.699Z,10.08
2018-06-21T03:20:56.074Z,10.20
2018-06-21T03:23:24.419Z,10.85
2018-06-21T03:25:52.774Z,10.93
2018-06-21T03:28:21.233Z,10.95
2018-06-21T03:30:49.581Z,11.55
2018-06-21T03:33:18.054Z,10.55
2018-06-21T03:35:46.490Z,10.75
2018-06-21T03:38:14.861Z,12.78
2018-06-21T03:40:43.233Z,10.13
2018-06-21T03:43:11.681Z,10.27
2018-06-21T03:45:40.133Z,11.00
2018-06-21T03:48:08.533Z,10.45
2018-06-21T03:50:36.952Z,10.10
2018-06-21T03:53:05.577Z,11.57
2018-06-21T03:55:34.121Z,11.63
2018-06-21T03:58:02.621Z,11.07
2018-06-21T04:00:31.026Z,11.12
2018-06-21T04:02:59.468Z,10.93
2018-06-21T04:05:27.924Z,12.30
2018-06-21T04:07:56.345Z,11.10
2018-06-21T04:10:24.737Z,11.25
2018-06-21T04:12:53.158Z,11.57
2018-06-21T04:15:21.642Z,11.30
2018-06-21T04:17:50.094Z,11.40
2018-06-21T04:20:18.581Z,12.88
2018-06-21T04:22:46.965Z,13.58
2018-06-21T04:25:15.572Z,14.73
2018-06-21T04:27:43.920Z,16.50
2018-06-21T04:30:12.291Z,14.03
2018-06-21T04:32:41.082Z,13.50
2018-06-21T04:35:09.563Z,14.83
2018-06-21T04:37:38.510Z,13.83
2018-06-21T04:40:06.994Z,11.78
2018-06-21T04:42:35.574Z,14.10
2018-06-21T04:45:04.116Z,13.05
2018-06-21T04:47:32.542Z,11.73
2018-06-21T04:50:01.939Z,11.08
2018-06-21T04:52:30.569Z,12.20
2018-06-21T04:54:58.972Z,12.37
2018-06-21T04:57:27.454Z,12.55
2018-06-21T04:59:55.966Z,14.18
2018-06-21T05:02:24.298Z,15.83
2018-06-21T05:04:52.698Z,13.65
2018-06-21T05:07:21.216Z,12.10
2018-06-21T05:09:49.728Z,14.07
2018-06-21T05:12:21.446Z,12.23
2018-06-21T05:14:50.734Z,14.70
2018-06-21T05:17:19.296Z,13.35
2018-06-21T05:19:47.692Z,13.07
2018-06-21T05:22:16.182Z,11.90
2018-06-21T05:24:44.582Z,12.75
2018-06-21T05:27:18.124Z,10.72
2018-06-21T05:29:46.506Z,10.50
2018-06-21T05:32:14.926Z,9.78
2018-06-21T05:34:43.261Z,14.00
2018-06-21T05:37:11.766Z,9.65
2018-06-21T05:39:40.120Z,12.05
2018-06-21T05:42:08.650Z,11.50
2018-06-21T05:44:37.110Z,11.23
2018-06-21T05:47:05.570Z,11.27
2018-06-21T05:49:34.487Z,10.53
2018-06-21T05:52:02.950Z,9.95
2018-06-21T05:54:31.364Z,8.17
2018-06-21T05:56:59.681Z,9.53
2018-06-21T05:59:28.091Z,9.27
2018-06-21T06:01:56.525Z,11.03
2018-06-21T06:04:24.928Z,10.10
2018-06-21T06:06:53.419Z,8.73
2018-06-21T06:09:21.837Z,13.88
2018-06-21T06:11:50.272Z,10.35
2018-06-21T06:14:18.867Z,11.12
2018-06-21T06:16:48.461Z,8.40
2018-06-21T06:19:16.974Z,12.00
2018-06-21T06:21:45.465Z,9.60
2018-06-21T06:24:14.211Z,9.95
2018-06-21T06:26:42.772Z,7.70
2018-06-21T06:29:11.259Z,9.73
2018-06-21T06:31:40.035Z,7.75
2018-06-21T06:34:08.395Z,8.65
2018-06-21T06:36:36.760Z,9.20
2018-06-21T06:39:13.311Z,10.78
2018-06-21T06:41:41.797Z,10.17
2018-06-21T06:44:10.851Z,11.60
2018-06-21T06:46:39.271Z,14.23
2018-06-21T06:49:08.624Z,13.07
2018-06-21T06:51:37.022Z,9.63
2018-06-21T06:54:05.411Z,10.40
2018-06-21T06:56:33.835Z,9.03
2018-06-21T06:59:02.217Z,8.53
2018-06-21T07:01:31.037Z,9.23
2018-06-21T07:03:59.437Z,9.48
2018-06-21T07:06:27.880Z,11.15
2018-06-21T07:08:56.801Z,8.60
2018-06-21T07:11:25.832Z,10.00
2018-06-21T07:13:54.709Z,9.65
2018-06-21T07:16:23.444Z,10.80
2018-06-21T07:18:52.045Z,10.97
2018-06-21T07:21:20.625Z,9.83
2018-06-21T07:23:49.011Z,13.90
2018-06-21T07:26:17.505Z,9.28
2018-06-21T07:28:45.883Z,11.48
2018-06-21T07:31:14.361Z,11.88
2018-06-21T07:33:42.812Z,7.30
2018-06-21T07:36:11.305Z,7.10
2018-06-21T07:38:39.883Z,9.10
2018-06-21T07:41:08.417Z,7.47
2018-06-21T07:43:36.940Z,8.55
2018-06-21T07:46:05.499Z,7.67
2018-06-21T07:48:34.006Z,6.47
2018-06-21T07:51:02.419Z,7.27
2018-06-21T07:53:31.002Z,10.47
2018-06-21T07:55:59.413Z,6.10
2018-06-21T07:58:28.437Z,7.83
2018-06-21T08:00:56.813Z,6.57
2018-06-21T08:03:25.156Z,9.10
2018-06-21T08:05:53.553Z,6.50
2018-06-21T08:08:21.997Z,7.47
2018-06-21T08:10:50.553Z,8.13
2018-06-21T08:13:19.080Z,7.50
2018-06-21T08:15:47.565Z,9.60
2018-06-21T08:18:16.238Z,8.03
2018-06-21T08:20:44.648Z,10.53
2018-06-21T08:23:13.605Z,6.13
2018-06-21T08:25:42.108Z,5.70
2018-06-21T08:28:10.638Z,5.42
2018-06-21T08:30:39.074Z,8.70
2018-06-21T08:33:07.483Z,6.90
2018-06-21T08:35:36.135Z,6.93
2018-06-21T08:38:04.615Z,13.05
2018-06-21T08:40:32.966Z,7.47
2018-06-21T08:43:01.365Z,7.62
2018-06-21T08:45:29.759Z,7.15
2018-06-21T08:47:58.099Z,9.63
2018-06-21T08:50:26.601Z,7.05
2018-06-21T08:52:55.051Z,7.33
2018-06-21T08:55:23.577Z,6.72
2018-06-21T08:57:52.244Z,10.72
2018-06-21T09:00:20.537Z,5.55
2018-06-21T09:02:48.909Z,7.60
2018-06-21T09:05:17.294Z,11.95
2018-06-21T09:07:45.709Z,11.50
2018-06-21T09:10:14.042Z,8.10
2018-06-21T09:12:42.486Z,14.28
2018-06-21T09:15:11.527Z,8.60
2018-06-21T09:17:39.842Z,5.20
2018-06-21T09:20:08.371Z,8.58
2018-06-21T09:22:36.780Z,9.18
2018-06-21T09:25:05.173Z,8.50
2018-06-21T09:27:33.577Z,7.25
2018-06-21T09:30:01.973Z,5.08
2018-06-21T09:32:31.221Z,8.65
2018-06-21T09:34:59.558Z,6.53
2018-06-21T09:37:34.482Z,8.10
2018-06-21T09:40:08.481Z,9.40
2018-06-21T09:42:42.163Z,12.55
2018-06-21T09:45:10.629Z,10.50
2018-06-21T09:48:47.900Z,5.80
2018-06-21T09:51:16.317Z,9.88
2018-06-21T09:53:44.709Z,6.08
2018-06-21T09:56:13.077Z,8.10
2018-06-21T09:58:41.506Z,6.87
2018-06-21T10:01:09.983Z,9.38
2018-06-21T10:03:38.321Z,7.00
2018-06-21T10:06:06.996Z,7.85
2018-06-21T10:08:35.400Z,7.67
2018-06-21T10:11:03.863Z,7.70
2018-06-21T10:13:32.536Z,6.03
2018-06-21T10:16:01.042Z,9.85
2018-06-21T10:18:29.431Z,8.15
2018-06-21T10:20:57.889Z,7.22
2018-06-21T10:23:26.271Z,8.75
2018-06-21T10:25:54.773Z,6.60
2018-06-21T10:28:23.127Z,7.57
2018-06-21T10:30:51.573Z,7.10
2018-06-21T10:33:20.237Z,8.17
2018-06-21T10:35:49.415Z,7.37
2018-06-21T10:38:17.994Z,5.60
2018-06-21T10:40:46.393Z,6.70
2018-06-21T10:43:15.587Z,7.42
2018-06-21T10:45:44.289Z,9.30
2018-06-21T10:48:12.876Z,7.75
2018-06-21T10:50:41.562Z,8.45
2018-06-21T10:53:10.094Z,9.20
2018-06-21T10:55:38.473Z,9.17
2018-06-21T10:58:07.401Z,6.53
2018-06-21T11:00:36.361Z,10.35
2018-06-21T11:03:04.893Z,7.13
2018-06-21T11:05:33.763Z,5.90
2018-06-21T11:08:02.249Z,9.45
2018-06-21T11:10:30.667Z,11.33
2018-06-21T11:12:59.292Z,29.65
2018-06-21T11:15:27.791Z,35.88
2018-06-21T11:17:56.204Z,33.63
2018-06-21T11:20:24.609Z,22.20
2018-06-21T11:22:53.352Z,18.80
2018-06-21T11:25:26.856Z,18.87
2018-06-21T11:27:55.768Z,17.62
2018-06-21T11:30:25.738Z,12.30
2018-06-21T11:32:54.410Z,15.83
2018-06-21T11:35:27.947Z,9.80
2018-06-21T11:37:56.290Z,9.68
2018-06-21T11:40:26.718Z,10.53
2018-06-21T11:42:55.936Z,11.78
2018-06-21T11:45:35.630Z,11.78
2018-06-21T12:07:47.233Z,3.77
2018-06-21T12:10:17.347Z,5.78
2018-06-21T12:12:46.189Z,7.53
2018-06-21T12:15:14.624Z,6.05
2018-06-21T12:17:43.271Z,12.58
2018-06-21T12:20:11.737Z,6.83
2018-06-21T12:22:42.420Z,3.83
2018-06-21T12:25:12.905Z,3.77
2018-06-21T12:27:42.303Z,2.92
2018-06-21T12:30:13.687Z,5.80
2018-06-21T12:32:42.227Z,2.08
2018-06-21T12:35:10.593Z,1.95
2018-06-21T12:37:39.583Z,1.98
2018-06-21T12:40:09.745Z,3.40
2018-06-21T12:42:40.743Z,4.85
2018-06-21T12:45:09.629Z,3.60
2018-06-21T12:47:40.102Z,4.15
2018-06-21T12:50:09.654Z,3.55
2018-06-21T12:52:39.895Z,2.00
2018-06-21T12:55:09.962Z,4.50
2018-06-21T12:57:40.734Z,2.00
2018-06-21T13:00:10.083Z,4.50
2018-06-21T13:02:40.334Z,2.10
2018-06-21T13:05:10.145Z,3.70
2018-06-21T13:07:39.225Z,2.33
2018-06-21T13:10:19.041Z,3.70
2018-06-21T13:13:03.870Z,4.37
2018-06-21T13:15:39.547Z,2.83
2018-06-21T13:18:08.312Z,5.62
2018-06-21T13:20:37.606Z,3.70
2018-06-21T13:23:06.242Z,4.80
2018-06-21T13:25:34.693Z,3.40
2018-06-21T13:28:03.184Z,3.50
2018-06-21T13:30:31.641Z,3.70
2018-06-21T13:33:00.110Z,4.12
2018-06-21T13:35:28.813Z,3.90
2018-06-21T13:37:57.545Z,4.30
2018-06-21T13:40:27.780Z,4.12
2018-06-21T13:42:56.242Z,4.17
2018-06-21T13:45:24.682Z,3.58
2018-06-21T13:47:53.153Z,4.12
2018-06-21T13:50:21.964Z,6.07
2018-06-21T13:52:50.350Z,4.05
2018-06-21T13:55:19.318Z,3.98
2018-06-21T13:57:49.248Z,3.83
2018-06-21T14:00:19.208Z,4.05
2018-06-21T14:02:48.116Z,3.30
2018-06-21T14:05:17.619Z,3.60
2018-06-21T14:07:47.049Z,4.87
2018-06-21T14:10:15.509Z,4.30
2018-06-21T14:12:49.455Z,3.25
2018-06-21T14:15:24.070Z,4.80
2018-06-21T14:17:55.189Z,4.12
2018-06-21T14:20:23.783Z,3.15
2018-06-21T14:22:54.794Z,3.25
2018-06-21T14:25:33.812Z,4.97
2018-06-21T14:28:02.628Z,3.83
2018-06-21T14:30:44.434Z,5.45
2018-06-21T14:33:13.168Z,6.60
2018-06-21T14:35:48.498Z,4.97
2018-06-21T14:38:21.757Z,5.33
2018-06-21T14:40:55.000Z,5.00
2018-06-21T14:43:23.453Z,3.85
2018-06-21T14:45:55.359Z,6.23
2018-06-21T14:48:23.956Z,3.62
2018-06-21T14:50:54.881Z,4.20
2018-06-21T14:53:25.283Z,5.70
2018-06-21T14:56:03.234Z,5.80
2018-06-21T14:58:36.569Z,5.62
2018-06-21T15:01:06.095Z,3.90
2018-06-21T15:03:39.949Z,4.35
2018-06-21T15:06:24.385Z,4.85
2018-06-21T15:08:56.841Z,5.35
2018-06-21T15:11:26.853Z,7.90
2018-06-21T15:13:55.455Z,4.12
2018-06-21T15:16:25.513Z,4.30
2018-06-21T15:18:56.628Z,6.65
2018-06-21T15:21:26.061Z,4.58
2018-06-21T15:23:56.517Z,4.45
2018-06-21T15:26:30.012Z,4.55
2018-06-21T15:29:00.920Z,4.62
2018-06-21T15:31:32.384Z,4.12
2018-06-21T15:34:01.197Z,5.55
2018-06-21T15:36:30.488Z,4.65
2018-06-21T15:39:04.568Z,5.28
2018-06-21T15:41:34.433Z,5.67
2018-06-21T15:44:05.270Z,3.33
2018-06-21T15:46:42.102Z,3.33
2018-06-21T15:49:14.025Z,5.22
2018-06-21T15:51:44.513Z,6.30
2018-06-21T15:54:16.514Z,5.17
2018-06-21T15:56:45.629Z,7.83
2018-06-21T15:59:14.401Z,4.78
2018-06-21T16:01:44.328Z,3.30
2018-06-21T16:04:17.283Z,7.35
2018-06-21T16:07:04.444Z,4.40
2018-06-21T16:09:36.502Z,7.63
2018-06-21T16:12:05.546Z,7.28
2018-06-21T16:14:34.130Z,6.17
2018-06-21T16:17:02.610Z,5.00
2018-06-21T16:19:31.170Z,7.25
2018-06-21T16:21:59.902Z,6.85
2018-06-21T16:24:28.467Z,5.33
2018-06-21T16:27:01.984Z,7.05
2018-06-21T16:29:30.543Z,8.08
2018-06-21T16:31:58.954Z,6.62
2018-06-21T16:34:27.564Z,8.20
2018-06-21T16:37:01.266Z,7.20
2018-06-21T16:39:29.817Z,6.55
2018-06-21T16:41:58.264Z,5.87
2018-06-21T16:44:27.044Z,6.20
2018-06-21T16:46:55.594Z,6.17
2018-06-21T16:49:24.466Z,5.10
2018-06-21T16:51:52.964Z,7.37
2018-06-21T16:54:21.442Z,7.17
2018-06-21T16:56:49.860Z,8.43
2018-06-21T16:59:18.620Z,3.92
2018-06-21T17:01:47.976Z,7.03
2018-06-21T17:04:16.490Z,7.40
2018-06-21T17:06:44.959Z,4.33
2018-06-21T17:09:13.452Z,6.40
2018-06-21T17:11:42.158Z,6.80
2018-06-21T17:14:10.887Z,7.22
2018-06-21T17:16:44.597Z,7.67
2018-06-21T17:19:13.109Z,5.33
2018-06-21T17:21:41.794Z,5.92
2018-06-21T17:24:10.214Z,6.08
2018-06-21T17:26:43.804Z,6.62
2018-06-21T17:29:12.313Z,6.77
2018-06-21T17:31:41.396Z,7.22
2018-06-21T17:34:10.213Z,8.00
2018-06-21T17:36:43.993Z,4.97
2018-06-21T17:39:12.793Z,5.70
2018-06-21T17:41:42.341Z,5.47
2018-06-21T17:44:12.312Z,6.10
2018-06-21T17:46:47.732Z,7.93
2018-06-21T17:49:17.908Z,8.55
2018-06-21T17:51:46.743Z,6.10
2018-06-21T17:54:15.418Z,6.58
2018-06-21T17:56:45.138Z,9.70
2018-06-21T17:59:15.708Z,5.15
2018-06-21T18:01:44.516Z,4.97
2018-06-21T18:04:13.514Z,5.97
2018-06-21T18:07:04.617Z,6.03
2018-06-21T18:09:33.367Z,3.70
2018-06-21T18:12:02.014Z,4.10
2018-06-21T18:14:32.383Z,3.93
2018-06-21T18:17:05.976Z,4.22
2018-06-21T18:19:34.454Z,3.52
2018-06-21T18:22:02.870Z,4.37
2018-06-21T18:24:31.326Z,6.57
2018-06-21T18:27:13.480Z,4.87
2018-06-21T18:29:42.078Z,4.53
2018-06-21T18:32:10.758Z,4.28
2018-06-21T18:34:39.364Z,4.60
2018-06-21T18:37:07.880Z,3.15
2018-06-21T18:39:36.494Z,4.58
2018-06-21T18:42:05.482Z,4.55
2018-06-21T18:44:34.033Z,4.97
2018-06-21T18:47:08.136Z,4.10
2018-06-21T18:49:36.769Z,5.67
2018-06-21T18:52:05.273Z,6.17
2018-06-21T18:54:33.804Z,3.98
2018-06-21T18:57:11.715Z,4.87
2018-06-21T18:59:40.234Z,4.58
2018-06-21T19:02:08.678Z,6.33
2018-06-21T19:04:37.386Z,5.43
2018-06-21T19:07:11.482Z,5.55
2018-06-21T19:09:45.578Z,4.83
2018-06-21T19:12:14.890Z,3.15
2018-06-21T19:14:43.472Z,5.35
2018-06-21T19:17:12.210Z,4.65
2018-06-21T19:19:40.749Z,4.87
2018-06-21T19:22:09.288Z,5.62
2018-06-21T19:24:37.739Z,4.30
2018-06-21T19:27:15.684Z,5.23
2018-06-21T19:29:44.118Z,4.45
2018-06-21T19:32:12.620Z,5.77
2018-06-21T19:34:41.144Z,5.70
2018-06-21T19:37:09.832Z,5.08
2018-06-21T19:39:38.870Z,3.60
2018-06-21T19:42:07.337Z,4.53
2018-06-21T19:44:35.774Z,5.67
2018-06-21T19:47:04.364Z,4.55
2018-06-21T19:49:32.865Z,4.40
2018-06-21T19:52:01.325Z,6.22
2018-06-21T19:54:29.776Z,2.67
2018-06-21T19:56:58.385Z,2.90
2018-06-21T19:59:26.844Z,4.65
2018-06-21T20:01:55.164Z,3.95
2018-06-21T20:04:23.718Z,3.37
2018-06-21T20:06:52.150Z,2.90
2018-06-21T20:09:20.641Z,3.62
2018-06-21T20:11:49.149Z,3.45
2018-06-21T20:14:17.621Z,2.43
2018-06-21T20:16:46.146Z,2.90
2018-06-21T20:19:16.784Z,3.05
2018-06-21T20:21:45.428Z,3.12
2018-06-21T20:24:13.984Z,2.27
2018-06-21T20:26:42.454Z,2.40
2018-06-21T20:29:16.373Z,3.13
2018-06-21T20:31:44.992Z,4.30
2018-06-21T20:34:13.592Z,3.57
2018-06-21T20:36:42.088Z,2.75
2018-06-21T20:39:11.450Z,2.27
2018-06-21T20:41:39.972Z,4.73
2018-06-21T20:44:08.505Z,3.17
2018-06-21T20:46:37.930Z,2.10
2018-06-21T20:49:06.321Z,2.50
2018-06-21T20:51:34.744Z,2.97
2018-06-21T20:54:03.082Z,5.43
2018-06-21T20:56:31.546Z,3.17
2018-06-21T20:58:59.834Z,2.87
2018-06-21T21:01:28.292Z,2.90
2018-06-21T21:03:56.669Z,3.40
2018-06-21T21:06:25.868Z,1.80
2018-06-21T21:08:54.236Z,2.17
2018-06-21T21:11:22.614Z,3.47
2018-06-21T21:13:51.042Z,2.13
2018-06-21T21:16:19.545Z,2.60
2018-06-21T21:18:47.971Z,1.93
2018-06-21T21:21:16.354Z,1.67
2018-06-21T21:23:44.710Z,3.87
2018-06-21T21:26:13.194Z,4.07
2018-06-21T21:28:41.589Z,2.37
2018-06-21T21:31:09.959Z,1.67
2018-06-21T21:33:38.386Z,3.20
2018-06-21T21:36:07.987Z,2.93
2018-06-21T21:38:36.336Z,2.93
2018-06-21T21:41:04.739Z,1.93
2018-06-21T21:43:33.186Z,1.90
2018-06-21T21:46:01.571Z,2.07
2018-06-21T21:48:29.926Z,4.97
2018-06-21T21:50:58.412Z,4.93
2018-06-21T21:53:26.784Z,1.60
2018-06-21T21:55:55.300Z,3.97
2018-06-21T21:58:23.682Z,2.37
2018-06-21T22:00:54.262Z,8.87
2018-06-21T22:03:22.580Z,3.10
2018-06-21T22:05:51.138Z,6.13
2018-06-21T22:08:19.577Z,1.83
2018-06-21T22:10:48.446Z,4.47
2018-06-21T22:13:17.131Z,4.67
2018-06-21T22:15:45.690Z,3.00
2018-06-21T22:18:14.034Z,4.00
2018-06-21T22:23:18.686Z,2.93
2018-06-21T22:25:47.265Z,1.80
2018-06-21T22:28:15.652Z,2.63
2018-06-21T22:30:44.033Z,3.27
2018-06-21T22:33:12.426Z,2.43
2018-06-21T22:35:41.032Z,1.73
2018-06-21T22:38:09.635Z,2.40
2018-06-21T22:40:38.123Z,2.70
2018-06-21T22:43:06.460Z,2.93
2018-06-21T22:45:34.933Z,6.03
2018-06-21T22:48:03.306Z,4.67
2018-06-21T22:50:31.711Z,4.23
2018-06-21T22:53:00.182Z,2.80
2018-06-21T22:55:28.566Z,2.50
2018-06-21T22:57:56.916Z,1.47
2018-06-21T23:00:25.298Z,4.20
2018-06-21T23:02:53.674Z,4.57
2018-06-21T23:05:22.117Z,1.83
2018-06-21T23:07:50.523Z,5.63
2018-06-21T23:10:18.918Z,2.17
2018-06-21T23:12:47.274Z,4.30
2018-06-21T23:15:15.814Z,5.40
2018-06-21T23:17:44.346Z,2.87
2018-06-21T23:20:12.930Z,1.57
2018-06-21T23:22:41.339Z,2.23
2018-06-21T23:25:09.779Z,3.27
2018-06-21T23:27:38.189Z,2.40
2018-06-21T23:30:06.712Z,3.37
2018-06-21T23:32:35.060Z,2.03
2018-06-21T23:35:03.558Z,3.40
2018-06-21T23:37:31.968Z,4.07
2018-06-21T23:40:00.386Z,2.43
2018-06-21T23:42:28.792Z,3.47
2018-06-21T23:44:57.189Z,4.50
2018-06-21T23:47:26.113Z,2.47
2018-06-21T23:49:54.525Z,2.07
2018-06-21T23:52:22.836Z,3.80
2018-06-21T23:54:51.273Z,2.60
2018-06-21T23:57:19.614Z,3.40
2018-06-21T23:59:48.052Z,5.73
